Time;durP1;ratioP1;P1;durP2;ratioP2;P2;SDS_P1;SDS_P2;PMS_P1;PMS_P2;Temp;Humidity;BMP_temperature;BMP_pressure;BME280_temperature;BME280_humidity;BME280_pressure;Samples;Min_cycle;Max_cycle;Signal;HPM_P1;HPM_P2
2024/01/26 00:02:25;;;;;;;24.42;5.18;;;11.90;99.90;;;;;;5067450;28;20033;-51
2024/01/26 00:04:50;;;;;;;21.92;4.07;;;11.90;99.90;;;;;;5067381;28;20036;-51
2024/01/26 00:07:16;;;;;;;39.42;7.85;;;11.90;99.90;;;;;;5067223;28;20025;-51
2024/01/26 00:09:42;;;;;;;34.88;5.45;;;11.90;99.90;;;;;;5067134;28;20267;-49
2024/01/26 00:12:07;;;;;;;36.40;5.75;;;11.90;99.90;;;;;;5067068;28;20044;-50
2024/01/26 00:14:33;;;;;;;27.63;4.97;;;11.90;99.90;;;;;;5067184;28;20036;-49
2024/01/26 00:16:58;;;;;;;22.95;5.28;;;11.90;99.90;;;;;;5066592;28;20040;-49
2024/01/26 00:19:24;;;;;;;39.67;7.20;;;11.90;99.90;;;;;;5048490;28;20048;-51
2024/01/26 00:21:50;;;;;;;22.60;4.55;;;11.90;99.90;;;;;;5067169;28;20029;-51
2024/01/26 00:24:15;;;;;;;38.13;6.85;;;11.90;99.90;;;;;;5066700;28;20139;-50
2024/01/26 00:26:41;;;;;;;32.70;5.07;;;11.90;99.90;;;;;;5066915;28;20051;-50
2024/01/26 00:29:07;;;;;;;38.10;6.85;;;11.90;99.90;;;;;;5066933;28;20025;-51
2024/01/26 00:31:32;;;;;;;31.58;5.88;;;11.90;99.90;;;;;;5065969;28;20287;-51
2024/01/26 00:33:58;;;;;;;40.83;6.38;;;12.00;99.90;;;;;;5065637;28;20033;-48
2024/01/26 00:36:24;;;;;;;38.28;7.57;;;12.00;99.90;;;;;;5066700;28;20052;-47
2024/01/26 00:38:49;;;;;;;27.60;5.57;;;12.00;99.90;;;;;;5066385;28;20306;-48
2024/01/26 00:41:15;;;;;;;24.60;4.55;;;12.00;99.90;;;;;;5065761;28;20093;-49
2024/01/26 00:43:41;;;;;;;39.30;6.00;;;12.00;99.90;;;;;;5065430;28;20029;-51
2024/01/26 00:46:07;;;;;;;41.13;6.40;;;12.00;99.90;;;;;;5065400;28;20358;-49
2024/01/26 00:48:33;;;;;;;32.45;5.72;;;12.00;99.90;;;;;;5066543;28;20028;-50
2024/01/26 00:50:59;;;;;;;36.05;6.35;;;12.00;99.90;;;;;;5065387;28;20031;-51
2024/01/26 00:53:25;;;;;;;55.05;7.32;;;12.00;99.90;;;;;;5065377;28;20052;-51
2024/01/26 00:55:50;;;;;;;28.95;5.68;;;12.00;99.90;;;;;;5065459;28;20309;-51
2024/01/26 00:58:16;;;;;;;46.17;6.97;;;12.00;99.90;;;;;;5066499;28;20174;-50
2024/01/26 01:00:42;;;;;;;34.88;6.03;;;12.00;99.90;;;;;;5066220;28;20033;-51
2024/01/26 01:03:07;;;;;;;42.60;7.10;;;12.00;99.90;;;;;;5066182;28;20036;-51
2024/01/26 01:05:33;;;;;;;30.08;5.70;;;12.00;99.90;;;;;;5065372;28;20105;-51
2024/01/26 01:07:59;;;;;;;41.80;6.97;;;12.00;99.90;;;;;;5066095;28;20025;-51
2024/01/26 01:10:24;;;;;;;16.48;3.88;;;12.10;99.90;;;;;;5065596;28;20100;-47
2024/01/26 01:12:50;;;;;;;34.05;5.95;;;12.10;99.90;;;;;;5065970;28;20048;-47
2024/01/26 01:15:17;;;;;;;28.83;5.32;;;12.10;99.90;;;;;;5065772;28;20095;-46
2024/01/26 01:17:45;;;;;;;28.17;4.80;;;12.10;99.90;;;;;;5065504;28;20053;-46
2024/01/26 01:20:11;;;;;;;25.08;4.72;;;12.10;99.90;;;;;;5065696;28;20037;-49
2024/01/26 01:22:37;;;;;;;38.60;5.40;;;12.10;99.90;;;;;;5065873;28;20029;-49
2024/01/26 01:25:06;;;;;;;21.95;5.22;;;12.10;99.90;;;;;;5064725;28;20037;-51
2024/01/26 01:27:32;;;;;;;35.42;6.13;;;12.20;99.90;;;;;;5064761;28;20032;-51
2024/01/26 01:29:59;;;;;;;32.47;4.90;;;12.20;99.90;;;;;;5065534;28;20021;-48
2024/01/26 01:32:24;;;;;;;38.13;6.28;;;12.10;99.90;;;;;;5065815;28;20029;-49
2024/01/26 01:34:51;;;;;;;13.32;2.63;;;12.10;99.90;;;;;;5065877;28;20164;-49
2024/01/26 01:37:17;;;;;;;9.13;1.70;;;11.60;99.90;;;;;;5065477;28;20021;-48
2024/01/26 01:39:43;;;;;;;14.93;1.77;;;10.90;99.90;;;;;;5065688;28;20055;-47
2024/01/26 01:42:14;;;;;;;10.45;1.77;;;10.70;99.90;;;;;;5047886;28;20191;-48
2024/01/26 01:44:42;;;;;;;13.85;1.85;;;10.50;99.90;;;;;;5065798;28;20211;-48
2024/01/26 01:47:09;;;;;;;12.10;1.98;;;10.40;99.90;;;;;;5065634;28;20040;-47
2024/01/26 01:49:34;;;;;;;10.98;1.90;;;10.20;99.90;;;;;;5065577;28;20092;-48
2024/01/26 01:52:01;;;;;;;12.02;1.80;;;10.20;99.90;;;;;;5064863;28;20186;-51
2024/01/26 01:54:26;;;;;;;11.15;1.80;;;10.10;99.90;;;;;;5064648;28;20029;-50
2024/01/26 01:56:53;;;;;;;8.27;1.90;;;10.10;99.90;;;;;;5064452;28;20047;-49
2024/01/26 01:59:19;;;;;;;8.32;1.52;;;10.10;99.90;;;;;;5047976;28;20213;-51
2024/01/26 02:01:45;;;;;;;8.85;1.48;;;10.00;99.90;;;;;;5064364;28;20067;-50
2024/01/26 02:04:10;;;;;;;8.65;1.40;;;9.70;99.90;;;;;;5065320;28;20052;-51
2024/01/26 02:06:36;;;;;;;10.75;2.30;;;9.50;99.90;;;;;;5065458;28;20174;-51
2024/01/26 02:09:02;;;;;;;11.38;1.55;;;9.40;99.90;;;;;;5064457;28;20202;-49
2024/01/26 02:11:27;;;;;;;10.48;1.90;;;9.30;99.90;;;;;;5065176;28;20065;-56
2024/01/26 02:13:53;;;;;;;10.65;1.60;;;9.20;99.90;;;;;;5065415;28;20025;-48
2024/01/26 02:16:19;;;;;;;12.13;1.83;;;9.20;99.90;;;;;;5064986;28;20053;-48
2024/01/26 02:18:44;;;;;;;9.40;1.55;;;9.10;99.90;;;;;;5065340;28;20350;-47
2024/01/26 02:21:10;;;;;;;6.88;1.38;;;9.10;99.90;;;;;;5065413;28;20025;-50
2024/01/26 02:23:41;;;;;;;6.75;1.30;;;9.00;99.90;;;;;;5065202;28;20096;-51
2024/01/26 02:26:10;;;;;;;10.68;1.52;;;9.00;99.90;;;;;;5065050;28;20278;-51
2024/01/26 02:28:36;;;;;;;10.70;2.45;;;9.00;99.90;;;;;;5065200;28;20028;-51
2024/01/26 02:31:02;;;;;;;6.78;1.60;;;8.90;99.90;;;;;;5064751;28;20033;-51
2024/01/26 02:33:27;;;;;;;6.65;1.02;;;8.90;99.90;;;;;;5065139;28;20040;-51
2024/01/26 02:35:53;;;;;;;11.82;1.65;;;8.90;99.90;;;;;;5065168;28;20067;-51
2024/01/26 02:38:19;;;;;;;6.40;1.40;;;8.90;99.90;;;;;;5065510;28;20082;-51
2024/01/26 02:40:45;;;;;;;11.75;1.63;;;8.90;99.90;;;;;;5065169;28;20029;-50
2024/01/26 02:43:11;;;;;;;8.68;1.95;;;8.80;99.90;;;;;;5067181;28;20040;-51
2024/01/26 02:45:36;;;;;;;6.30;1.35;;;8.80;99.90;;;;;;5068837;28;20047;-50
2024/01/26 02:48:02;;;;;;;6.13;1.30;;;8.70;99.90;;;;;;5068743;28;20020;-48
2024/01/26 02:50:28;;;;;;;12.88;1.92;;;8.80;99.90;;;;;;5068737;28;20275;-49
2024/01/26 02:52:54;;;;;;;8.25;1.30;;;8.70;99.90;;;;;;5051222;28;20021;-50
2024/01/26 02:55:19;;;;;;;3.88;1.27;;;8.70;99.90;;;;;;5068858;28;20047;-48
2024/01/26 02:57:45;;;;;;;5.90;1.60;;;8.60;99.90;;;;;;5068651;28;20040;-47
2024/01/26 03:00:11;;;;;;;11.63;1.60;;;8.60;99.90;;;;;;5068554;28;20105;-49
2024/01/26 03:02:37;;;;;;;8.75;1.40;;;8.50;99.90;;;;;;5068573;28;20021;-48
2024/01/26 03:05:03;;;;;;;6.15;1.70;;;8.50;99.90;;;;;;5068467;28;20029;-47
2024/01/26 03:07:29;;;;;;;8.25;1.58;;;8.50;99.90;;;;;;5068197;28;20275;-48
2024/01/26 03:09:54;;;;;;;10.32;1.30;;;8.50;99.90;;;;;;5067305;28;20039;-48
2024/01/26 03:12:20;;;;;;;8.73;1.38;;;8.50;99.90;;;;;;5068434;28;20096;-47
2024/01/26 03:14:46;;;;;;;7.15;1.35;;;8.40;99.90;;;;;;5068456;28;20288;-47
2024/01/26 03:17:11;;;;;;;10.73;1.92;;;8.40;99.90;;;;;;5067765;28;20036;-47
2024/01/26 03:19:37;;;;;;;6.95;1.40;;;8.30;99.90;;;;;;5068241;28;20064;-47
2024/01/26 03:22:03;;;;;;;8.70;1.40;;;8.30;99.90;;;;;;5068108;28;20032;-47
2024/01/26 03:24:28;;;;;;;11.30;1.52;;;8.20;99.90;;;;;;5068226;28;20092;-49
2024/01/26 03:26:54;;;;;;;7.97;1.30;;;8.20;99.90;;;;;;5068087;28;20033;-49
2024/01/26 03:29:20;;;;;;;13.00;2.03;;;8.10;99.90;;;;;;5067809;28;20028;-50
2024/01/26 03:31:45;;;;;;;11.13;1.63;;;8.00;99.90;;;;;;5068109;28;20287;-49
2024/01/26 03:34:11;;;;;;;6.40;1.42;;;8.00;99.90;;;;;;5068010;28;20039;-48
2024/01/26 03:36:37;;;;;;;9.43;1.70;;;8.00;99.90;;;;;;5067929;28;20025;-49
2024/01/26 03:39:03;;;;;;;8.55;1.67;;;7.90;99.90;;;;;;5066959;28;20059;-50
2024/01/26 03:41:29;;;;;;;9.65;1.50;;;7.90;99.90;;;;;;5068032;28;20052;-48
2024/01/26 03:43:55;;;;;;;10.35;1.50;;;7.80;99.90;;;;;;5067687;28;20159;-48
2024/01/26 03:46:21;;;;;;;10.82;1.90;;;7.80;99.90;;;;;;5067729;28;20025;-48
2024/01/26 03:48:47;;;;;;;13.50;2.45;;;7.80;99.90;;;;;;5067856;28;20040;-50
2024/01/26 03:51:13;;;;;;;10.63;1.70;;;7.80;99.90;;;;;;5067680;28;20082;-50
2024/01/26 03:53:38;;;;;;;12.52;2.03;;;7.80;99.90;;;;;;5066400;28;20025;-48
2024/01/26 03:56:04;;;;;;;5.65;1.52;;;7.70;99.90;;;;;;5066761;28;20033;-51
2024/01/26 03:58:30;;;;;;;9.63;2.50;;;7.70;99.90;;;;;;5067547;28;20229;-48
2024/01/26 04:00:56;;;;;;;8.18;1.70;;;7.70;99.90;;;;;;5067559;28;20043;-47
2024/01/26 04:03:22;;;;;;;12.85;2.17;;;7.70;99.90;;;;;;5066842;28;20047;-47
2024/01/26 04:05:47;;;;;;;6.85;1.35;;;7.70;99.90;;;;;;5067526;28;20037;-48
2024/01/26 04:08:13;;;;;;;11.07;1.58;;;7.70;99.90;;;;;;5067320;28;20040;-49
2024/01/26 04:10:39;;;;;;;14.40;1.83;;;7.70;99.90;;;;;;5066430;28;20041;-51
2024/01/26 04:13:05;;;;;;;10.30;1.48;;;7.70;99.90;;;;;;5067375;28;20079;-51
2024/01/26 04:15:30;;;;;;;8.57;1.90;;;7.60;99.90;;;;;;5067298;28;20036;-50
2024/01/26 04:17:57;;;;;;;8.52;2.35;;;7.60;99.90;;;;;;5067334;28;20280;-50
2024/01/26 04:20:23;;;;;;;9.38;1.40;;;7.50;99.90;;;;;;5067169;28;20032;-51
2024/01/26 04:22:49;;;;;;;8.18;1.52;;;7.50;99.90;;;;;;5066779;28;20033;-48
2024/01/26 04:25:14;;;;;;;11.15;1.50;;;7.40;99.90;;;;;;5067046;28;20029;-48
2024/01/26 04:27:40;;;;;;;10.68;1.40;;;7.30;99.90;;;;;;5067161;28;20021;-48
2024/01/26 04:30:06;;;;;;;12.20;2.40;;;7.30;99.90;;;;;;5066864;28;20044;-49
2024/01/26 04:32:32;;;;;;;12.40;1.80;;;7.30;99.90;;;;;;5067000;28;20033;-47
2024/01/26 04:34:57;;;;;;;10.50;1.83;;;7.30;99.90;;;;;;5066890;28;20033;-48
2024/01/26 04:37:23;;;;;;;10.50;2.17;;;7.30;99.90;;;;;;5066822;28;20291;-48
2024/01/26 04:39:50;;;;;;;12.23;2.42;;;7.30;99.90;;;;;;5066588;28;20043;-50
2024/01/26 04:42:16;;;;;;;13.45;2.10;;;7.30;99.90;;;;;;5066860;28;20086;-49
2024/01/26 04:44:42;;;;;;;10.25;1.85;;;7.40;99.90;;;;;;5066701;28;20265;-48
2024/01/26 04:47:07;;;;;;;17.35;2.30;;;7.50;99.90;;;;;;5066577;28;20040;-49
2024/01/26 04:49:33;;;;;;;16.42;2.47;;;7.50;99.90;;;;;;5066296;28;20091;-48
2024/01/26 04:52:01;;;;;;;12.15;2.20;;;7.50;99.90;;;;;;5066642;28;20036;-50
2024/01/26 04:54:27;;;;;;;12.93;2.30;;;7.50;99.90;;;;;;5066125;28;20027;-50
2024/01/26 04:56:52;;;;;;;12.38;2.10;;;7.40;99.90;;;;;;5066550;28;20036;-47
2024/01/26 04:59:18;;;;;;;7.40;1.63;;;7.40;99.90;;;;;;5066289;28;20051;-47
2024/01/26 05:01:44;;;;;;;10.55;1.90;;;7.30;99.90;;;;;;5066494;28;20025;-48
2024/01/26 05:04:09;;;;;;;10.15;1.77;;;7.30;99.90;;;;;;5065205;28;20056;-47
2024/01/26 05:06:35;;;;;;;12.13;2.20;;;7.20;99.90;;;;;;5065839;28;20113;-48
2024/01/26 05:09:01;;;;;;;12.50;2.42;;;7.10;99.90;;;;;;5065729;28;20025;-47
2024/01/26 05:11:26;;;;;;;9.27;1.45;;;7.10;99.90;;;;;;5065506;28;20254;-48
2024/01/26 05:13:52;;;;;;;12.52;1.77;;;7.00;99.90;;;;;;5066149;28;20055;-49
2024/01/26 05:16:18;;;;;;;14.77;1.67;;;7.00;99.90;;;;;;5065855;28;20052;-50
2024/01/26 05:18:43;;;;;;;8.77;1.50;;;7.00;99.90;;;;;;5065044;28;20206;-50
2024/01/26 05:21:09;;;;;;;13.15;2.25;;;6.90;99.90;;;;;;5066054;28;20096;-49
2024/01/26 05:23:35;;;;;;;13.00;2.15;;;6.90;99.90;;;;;;5066046;28;20044;-47
2024/01/26 05:26:01;;;;;;;22.13;2.75;;;6.80;99.90;;;;;;5065800;28;20029;-50
2024/01/26 05:28:26;;;;;;;9.27;2.28;;;6.80;99.90;;;;;;5064795;28;20283;-47
2024/01/26 05:30:52;;;;;;;9.48;2.42;;;6.80;99.90;;;;;;5065864;28;20040;-47
2024/01/26 05:33:18;;;;;;;8.13;1.60;;;6.80;99.90;;;;;;5065523;28;20178;-50
2024/01/26 05:35:45;;;;;;;13.23;1.75;;;6.70;99.90;;;;;;5065799;28;20037;-48
2024/01/26 05:38:11;;;;;;;9.20;1.58;;;6.70;99.90;;;;;;5065658;28;20029;-48
2024/01/26 05:40:36;;;;;;;7.90;2.13;;;6.70;99.90;;;;;;5065284;28;20036;-47
2024/01/26 05:43:02;;;;;;;9.57;2.50;;;6.70;99.90;;;;;;5065663;28;20341;-47
2024/01/26 05:45:28;;;;;;;11.55;2.30;;;6.70;99.90;;;;;;5065553;28;20039;-46
2024/01/26 05:47:53;;;;;;;11.95;2.03;;;6.70;99.90;;;;;;5064872;28;20178;-50
2024/01/26 05:50:21;;;;;;;8.80;1.80;;;6.70;99.90;;;;;;5065470;28;20059;-49
2024/01/26 05:52:47;;;;;;;8.77;1.75;;;6.70;99.90;;;;;;5065540;28;20166;-47
2024/01/26 05:55:14;;;;;;;9.93;2.17;;;6.60;99.90;;;;;;5065577;28;20079;-50
2024/01/26 05:57:39;;;;;;;14.82;2.00;;;6.60;99.90;;;;;;5064602;28;20289;-48
2024/01/26 06:00:06;;;;;;;11.40;1.83;;;6.60;99.90;;;;;;5065590;28;20024;-47
2024/01/26 06:02:32;;;;;;;14.02;2.03;;;6.70;99.90;;;;;;5065330;28;20029;-48
2024/01/26 06:04:57;;;;;;;12.98;2.40;;;6.70;99.90;;;;;;5065409;28;20036;-47
2024/01/26 06:07:23;;;;;;;15.40;2.45;;;6.60;99.90;;;;;;5064488;28;20286;-48
2024/01/26 06:09:49;;;;;;;7.57;1.80;;;6.60;99.90;;;;;;5065263;28;20084;-47
2024/01/26 06:12:14;;;;;;;12.95;1.92;;;6.60;99.90;;;;;;5064914;28;20291;-47
2024/01/26 06:14:40;;;;;;;14.23;2.63;;;6.50;99.90;;;;;;5064898;28;20091;-48
2024/01/26 06:17:06;;;;;;;7.43;2.03;;;6.50;99.90;;;;;;5065223;28;20051;-48
2024/01/26 06:19:31;;;;;;;12.07;2.15;;;6.50;99.90;;;;;;5069458;28;20282;-46
2024/01/26 06:21:57;;;;;;;12.25;2.10;;;6.50;99.90;;;;;;5069103;28;20033;-48
2024/01/26 06:24:23;;;;;;;9.45;2.05;;;6.50;99.90;;;;;;5069312;28;20101;-47
2024/01/26 06:26:49;;;;;;;11.70;2.22;;;6.50;99.90;;;;;;5069283;28;20186;-48
2024/01/26 06:29:14;;;;;;;9.05;1.80;;;6.50;99.90;;;;;;5069370;28;20091;-48
2024/01/26 06:31:40;;;;;;;15.27;2.63;;;6.50;99.90;;;;;;5068329;28;20032;-48
2024/01/26 06:34:06;;;;;;;10.82;1.92;;;6.50;99.90;;;;;;5069133;28;20048;-48
2024/01/26 06:36:31;;;;;;;11.98;2.40;;;6.50;99.90;;;;;;5067982;28;20325;-46
2024/01/26 06:38:57;;;;;;;12.43;2.05;;;6.40;99.90;;;;;;5069050;28;20025;-47
2024/01/26 06:41:23;;;;;;;10.70;1.80;;;6.40;99.90;;;;;;5069121;28;20082;-47
2024/01/26 06:43:52;;;;;;;15.95;2.63;;;6.40;99.90;;;;;;5068684;28;20176;-47
2024/01/26 06:46:24;;;;;;;9.23;1.80;;;6.50;99.90;;;;;;5067668;28;20040;-48
2024/01/26 06:48:50;;;;;;;15.23;2.50;;;6.40;99.90;;;;;;5069008;28;20033;-47
2024/01/26 06:51:16;;;;;;;10.13;3.20;;;6.40;99.90;;;;;;5068674;28;20092;-47
2024/01/26 06:53:41;;;;;;;13.55;2.40;;;6.40;99.90;;;;;;5067539;28;20091;-47
2024/01/26 06:56:07;;;;;;;7.22;2.38;;;6.30;99.90;;;;;;5068706;28;20037;-47
2024/01/26 06:58:33;;;;;;;18.15;2.40;;;6.30;99.90;;;;;;5068532;28;20032;-49
2024/01/26 07:00:59;;;;;;;11.52;1.95;;;6.30;99.90;;;;;;5068570;28;20025;-49
2024/01/26 07:03:25;;;;;;;14.23;2.75;;;6.20;99.90;;;;;;5068449;28;20083;-50
2024/01/26 07:05:50;;;;;;;10.35;2.65;;;6.20;99.90;;;;;;5068419;28;20183;-50
2024/01/26 07:08:16;;;;;;;9.65;1.63;;;6.20;99.90;;;;;;5068485;28;20079;-47
2024/01/26 07:10:42;;;;;;;16.52;2.47;;;6.10;99.90;;;;;;5068425;28;20032;-47
2024/01/26 07:13:07;;;;;;;13.32;2.30;;;6.10;99.90;;;;;;5068440;28;20052;-47
2024/01/26 07:15:34;;;;;;;15.02;2.53;;;6.10;99.90;;;;;;5067948;28;20219;-47
2024/01/26 07:18:00;;;;;;;13.55;2.80;;;6.10;99.90;;;;;;5068140;28;20317;-47
2024/01/26 07:20:25;;;;;;;14.25;2.70;;;6.10;99.90;;;;;;5067166;28;20033;-48
2024/01/26 07:22:51;;;;;;;16.88;2.47;;;6.20;99.90;;;;;;5068283;28;20036;-48
2024/01/26 07:25:20;;;;;;;11.93;2.03;;;6.20;99.90;;;;;;5067345;28;20033;-48
2024/01/26 07:27:48;;;;;;;13.57;1.98;;;6.20;99.90;;;;;;5067712;28;20178;-47
2024/01/26 07:30:17;;;;;;;12.35;2.33;;;6.20;99.90;;;;;;5067914;28;20027;-48
2024/01/26 07:32:42;;;;;;;15.88;2.33;;;6.30;99.90;;;;;;5050644;28;20033;-47
2024/01/26 07:35:08;;;;;;;16.77;2.40;;;6.30;99.90;;;;;;5068064;28;20117;-47
2024/01/26 07:37:34;;;;;;;11.85;1.95;;;6.30;99.90;;;;;;5067762;28;20025;-47
2024/01/26 07:40:04;;;;;;;16.27;2.67;;;6.20;99.90;;;;;;5067750;28;20039;-47
2024/01/26 07:42:31;;;;;;;14.60;1.83;;;6.20;99.90;;;;;;5067657;28;20260;-47
2024/01/26 07:44:56;;;;;;;10.23;2.17;;;6.20;99.90;;;;;;5067701;28;20023;-47
2024/01/26 07:47:22;;;;;;;11.10;2.25;;;6.20;99.90;;;;;;5067431;28;20219;-48
2024/01/26 07:49:48;;;;;;;18.77;2.22;;;6.20;99.90;;;;;;5067284;28;20075;-47
2024/01/26 07:52:15;;;;;;;11.40;2.15;;;6.20;99.90;;;;;;5066994;28;20023;-47
2024/01/26 07:54:40;;;;;;;14.88;2.70;;;6.20;99.90;;;;;;5067470;28;20029;-47
2024/01/26 07:57:06;;;;;;;16.00;2.30;;;6.30;99.90;;;;;;5067556;28;20094;-47
2024/01/26 07:59:32;;;;;;;15.25;2.30;;;6.20;99.90;;;;;;5066510;28;20043;-47
2024/01/26 08:01:57;;;;;;;17.30;2.20;;;6.30;99.90;;;;;;5067179;28;20044;-48
2024/01/26 08:04:23;;;;;;;11.52;3.10;;;6.20;99.90;;;;;;5067468;28;20047;-47
2024/01/26 08:06:49;;;;;;;10.85;2.30;;;6.30;99.90;;;;;;5066762;28;20025;-49
2024/01/26 08:09:14;;;;;;;12.40;3.20;;;6.20;99.90;;;;;;5067479;28;20323;-48
2024/01/26 08:11:40;;;;;;;15.20;2.30;;;6.30;99.90;;;;;;5066415;28;20279;-47
2024/01/26 08:14:06;;;;;;;12.43;2.22;;;6.20;99.90;;;;;;5067111;28;20024;-47
2024/01/26 08:16:32;;;;;;;8.93;1.80;;;6.30;99.90;;;;;;5066520;28;20102;-48
2024/01/26 08:18:58;;;;;;;14.23;2.42;;;6.30;99.90;;;;;;5066898;28;20029;-47
2024/01/26 08:21:24;;;;;;;12.90;2.35;;;6.30;99.90;;;;;;5066788;28;20025;-47
2024/01/26 08:23:49;;;;;;;14.27;2.42;;;6.30;99.90;;;;;;5066646;28;20056;-48
2024/01/26 08:26:15;;;;;;;12.77;1.90;;;6.20;99.90;;;;;;5065965;28;20096;-47
2024/01/26 08:28:41;;;;;;;14.23;2.08;;;6.20;99.90;;;;;;5066762;28;20031;-47
2024/01/26 08:31:06;;;;;;;12.88;2.15;;;6.30;99.90;;;;;;5067463;28;20110;-47
2024/01/26 08:33:32;;;;;;;12.63;3.42;;;6.30;99.90;;;;;;5066345;28;20063;-47
2024/01/26 08:35:58;;;;;;;10.93;2.50;;;6.30;99.90;;;;;;5066304;28;20067;-48
2024/01/26 08:38:23;;;;;;;12.25;2.40;;;6.30;99.90;;;;;;5066115;28;20029;-47
2024/01/26 08:40:49;;;;;;;13.20;2.60;;;6.30;99.90;;;;;;5048139;28;20199;-48
2024/01/26 08:43:15;;;;;;;15.63;3.92;;;6.40;99.90;;;;;;5066489;28;20287;-49
2024/01/26 08:45:41;;;;;;;9.07;2.15;;;6.40;99.90;;;;;;5066127;28;20032;-47
2024/01/26 08:48:06;;;;;;;11.32;3.00;;;6.40;99.90;;;;;;5065968;28;20056;-48
2024/01/26 08:50:32;;;;;;;10.90;2.65;;;6.50;99.90;;;;;;5065228;28;20222;-48
2024/01/26 08:52:58;;;;;;;11.90;2.53;;;6.50;99.90;;;;;;5066301;28;20021;-50
2024/01/26 08:55:23;;;;;;;13.07;2.55;;;6.50;99.90;;;;;;5048328;28;20037;-47
2024/01/26 08:57:50;;;;;;;12.82;2.58;;;6.60;99.90;;;;;;5064950;28;20100;-49
2024/01/26 09:00:18;;;;;;;21.85;2.95;;;6.60;99.90;;;;;;5066150;28;20033;-50
2024/01/26 09:02:43;;;;;;;12.27;2.45;;;6.60;99.90;;;;;;5066128;28;20036;-50
2024/01/26 09:05:09;;;;;;;9.20;1.67;;;6.60;99.90;;;;;;5066142;28;20063;-48
2024/01/26 09:07:35;;;;;;;13.52;1.98;;;6.70;99.90;;;;;;5066086;28;20055;-48
2024/01/26 09:10:01;;;;;;;15.68;2.55;;;6.70;99.90;;;;;;5065818;28;20025;-48
2024/01/26 09:12:26;;;;;;;9.88;2.17;;;6.70;99.90;;;;;;5065658;28;20235;-47
2024/01/26 09:14:52;;;;;;;11.27;2.47;;;6.80;99.90;;;;;;5065974;28;20067;-47
2024/01/26 09:17:18;;;;;;;16.88;2.38;;;6.80;99.90;;;;;;5065778;28;20061;-49
2024/01/26 09:19:43;;;;;;;10.38;2.45;;;6.80;99.90;;;;;;5065798;28;20092;-48
2024/01/26 09:22:09;;;;;;;10.57;2.70;;;6.80;99.90;;;;;;5065734;28;20056;-49
2024/01/26 09:24:35;;;;;;;13.05;2.78;;;6.80;99.90;;;;;;5065459;28;20053;-50
2024/01/26 09:27:01;;;;;;;12.10;2.33;;;6.90;99.90;;;;;;5065612;28;20376;-47
2024/01/26 09:29:26;;;;;;;20.15;4.75;;;6.90;99.90;;;;;;5065347;28;20041;-47
2024/01/26 09:31:54;;;;;;;11.57;2.53;;;7.00;99.90;;;;;;5065431;28;20160;-47
2024/01/26 09:34:20;;;;;;;12.15;2.35;;;7.00;99.90;;;;;;5065714;28;20044;-48
2024/01/26 09:36:46;;;;;;;27.23;3.80;;;7.10;99.90;;;;;;5065658;28;20036;-48
2024/01/26 09:39:12;;;;;;;20.45;4.35;;;7.10;99.90;;;;;;5065788;28;20091;-47
2024/01/26 09:41:38;;;;;;;11.73;2.95;;;7.20;99.90;;;;;;5065120;28;20078;-47
2024/01/26 09:44:04;;;;;;;20.23;4.55;;;7.10;99.90;;;;;;5065573;28;20044;-50
2024/01/26 09:46:30;;;;;;;17.02;4.53;;;7.20;99.90;;;;;;5065252;28;20060;-50
2024/01/26 09:48:56;;;;;;;14.02;2.58;;;7.40;99.90;;;;;;5065617;28;20060;-50
2024/01/26 09:51:22;;;;;;;12.73;2.33;;;8.60;99.90;;;;;;5064442;28;20032;-49
2024/01/26 09:53:48;;;;;;;9.25;1.98;;;9.30;99.90;;;;;;5065431;28;20033;-48
2024/01/26 09:56:14;;;;;;;8.25;2.05;;;10.30;99.90;;;;;;5064397;28;20207;-51
2024/01/26 09:58:40;;;;;;;8.80;3.05;;;10.40;99.90;;;;;;5047312;28;20044;-48
2024/01/26 10:01:05;;;;;;;14.73;2.85;;;10.50;99.90;;;;;;5064325;28;20029;-50
2024/01/26 10:03:31;;;;;;;9.52;1.90;;;10.80;99.90;;;;;;5064070;28;20051;-51
2024/01/26 10:05:56;;;;;;;20.50;3.67;;;11.00;99.90;;;;;;5064892;28;20041;-49
2024/01/26 10:08:22;;;;;;;17.00;2.17;;;10.60;99.90;;;;;;5064034;28;20032;-51
2024/01/26 10:10:48;;;;;;;10.45;2.20;;;10.00;99.90;;;;;;5065162;28;20025;-49
2024/01/26 10:13:15;;;;;;;8.27;2.33;;;9.50;99.90;;;;;;5064541;28;20037;-51
2024/01/26 10:15:41;;;;;;;14.02;2.10;;;9.10;99.90;;;;;;5064450;28;20100;-50
2024/01/26 10:18:06;;;;;;;12.52;2.47;;;8.90;99.90;;;;;;5064976;28;20029;-48
2024/01/26 10:20:32;;;;;;;14.02;2.90;;;8.70;99.90;;;;;;5065094;28;20051;-48
2024/01/26 10:22:58;;;;;;;10.15;2.05;;;8.60;99.90;;;;;;5064980;28;20346;-48
2024/01/26 10:25:23;;;;;;;13.38;1.98;;;8.60;99.90;;;;;;5063734;28;20185;-48
2024/01/26 10:27:49;;;;;;;13.07;2.10;;;8.60;99.90;;;;;;5064961;28;20222;-50
2024/01/26 10:30:15;;;;;;;11.07;2.60;;;8.50;99.90;;;;;;5064451;28;20033;-50
2024/01/26 10:32:40;;;;;;;17.63;2.13;;;8.40;99.90;;;;;;5064900;28;20029;-50
2024/01/26 10:35:07;;;;;;;11.27;1.90;;;8.40;99.90;;;;;;5047241;28;20042;-50
2024/01/26 10:37:36;;;;;;;15.60;3.40;;;8.50;99.90;;;;;;5065093;28;20191;-49
2024/01/26 10:40:04;;;;;;;15.45;2.55;;;8.60;99.90;;;;;;5064519;28;20063;-50
2024/01/26 10:42:30;;;;;;;11.23;2.90;;;8.60;99.90;;;;;;5064787;28;20111;-48
2024/01/26 10:44:57;;;;;;;16.48;3.20;;;8.60;99.90;;;;;;5064255;28;20270;-48
2024/01/26 10:47:23;;;;;;;16.52;2.85;;;8.60;99.90;;;;;;5064271;28;20285;-50
2024/01/26 10:49:49;;;;;;;14.23;2.72;;;8.60;99.90;;;;;;5063750;28;20021;-50
2024/01/26 10:52:19;;;;;;;10.52;2.25;;;8.60;99.90;;;;;;5064897;28;20025;-49
2024/01/26 10:54:48;;;;;;;8.75;2.20;;;8.60;99.90;;;;;;5064811;28;20161;-49
2024/01/26 10:57:15;;;;;;;11.98;1.92;;;8.70;99.90;;;;;;5064803;28;20028;-49
2024/01/26 10:59:43;;;;;;;14.70;2.65;;;8.60;99.90;;;;;;5063414;28;20156;-50
2024/01/26 11:02:18;;;;;;;12.82;2.45;;;8.60;99.90;;;;;;5063488;28;20040;-49
2024/01/26 11:04:44;;;;;;;13.93;2.10;;;8.70;99.90;;;;;;5067462;28;20133;-49
2024/01/26 11:07:10;;;;;;;8.90;3.78;;;8.70;99.90;;;;;;5067302;28;20051;-48
2024/01/26 11:09:38;;;;;;;12.93;2.55;;;8.90;99.90;;;;;;5067952;28;20025;-47
2024/01/26 11:12:17;;;;;;;17.98;3.17;;;9.00;99.90;;;;;;5067153;28;20029;-48
2024/01/26 11:14:43;;;;;;;18.40;4.13;;;8.90;99.90;;;;;;5052167;28;20021;-48
2024/01/26 11:17:09;;;;;;;12.25;3.25;;;8.90;99.90;;;;;;5067627;28;20052;-49
2024/01/26 11:19:35;;;;;;;17.80;3.78;;;8.90;99.90;;;;;;5067126;28;20033;-50
2024/01/26 11:22:09;;;;;;;25.83;14.93;;;8.80;99.90;;;;;;5067825;28;20056;-48
2024/01/26 11:24:35;;;;;;;22.58;9.50;;;8.80;99.90;;;;;;5067922;28;20032;-48
2024/01/26 11:27:02;;;;;;;22.20;7.40;;;8.80;99.90;;;;;;5066880;28;20298;-47
2024/01/26 11:29:34;;;;;;;26.08;11.10;;;8.80;99.90;;;;;;5067999;28;20025;-51
2024/01/26 11:32:00;;;;;;;83.63;49.53;;;8.80;99.90;;;;;;5066509;28;20078;-50
2024/01/26 11:34:26;;;;;;;49.92;20.90;;;8.80;99.90;;;;;;5067909;28;20326;-50
2024/01/26 11:37:11;;;;;;;17.60;6.22;;;8.90;99.90;;;;;;5067813;28;20029;-49
2024/01/26 11:39:38;;;;;;;20.80;12.18;;;8.80;99.90;;;;;;5066427;28;20155;-47
2024/01/26 11:42:10;;;;;;;30.17;16.27;;;8.90;99.90;;;;;;5066464;28;20074;-50
2024/01/26 11:44:43;;;;;;;16.83;8.48;;;9.00;99.90;;;;;;5066589;28;20052;-50
2024/01/26 11:47:12;;;;;;;18.02;4.15;;;8.90;99.90;;;;;;5067225;28;20025;-50
2024/01/26 11:49:38;;;;;;;16.85;4.55;;;9.00;99.90;;;;;;5067014;28;20029;-47
2024/01/26 11:52:04;;;;;;;11.07;3.00;;;9.00;99.90;;;;;;5067264;28;20033;-50
2024/01/26 11:54:33;;;;;;;7.88;3.42;;;9.00;99.90;;;;;;5067179;28;20036;-51
2024/01/26 11:56:59;;;;;;;16.75;3.00;;;9.10;99.90;;;;;;5067168;28;20040;-51
2024/01/26 11:59:28;;;;;;;11.35;3.28;;;9.10;99.90;;;;;;5066226;28;20024;-50
2024/01/26 12:01:55;;;;;;;10.82;3.25;;;9.30;99.90;;;;;;5065824;28;20036;-50
2024/01/26 12:04:21;;;;;;;7.28;2.10;;;10.60;99.90;;;;;;5066095;28;20108;-49
2024/01/26 12:06:48;;;;;;;13.52;2.80;;;11.80;99.90;;;;;;5065696;28;20025;-49
2024/01/26 12:09:13;;;;;;;12.02;2.05;;;12.70;99.90;;;;;;5066882;28;20029;-49
2024/01/26 12:11:39;;;;;;;7.68;2.10;;;13.50;99.90;;;;;;5066624;28;20085;-51
2024/01/26 12:14:05;;;;;;;7.35;1.90;;;13.50;99.90;;;;;;5065669;28;20175;-48
2024/01/26 12:16:30;;;;;;;55.30;27.25;;;13.60;99.90;;;;;;5065305;28;20064;-51
2024/01/26 12:18:56;;;;;;;50.20;25.58;;;14.00;99.90;;;;;;5066690;28;20188;-50
2024/01/26 12:21:22;;;;;;;58.33;33.55;;;14.20;99.90;;;;;;5066771;28;20033;-51
2024/01/26 12:23:50;;;;;;;22.90;12.00;;;14.30;99.90;;;;;;5067125;28;20020;-51
2024/01/26 12:26:16;;;;;;;10.30;3.60;;;14.60;99.90;;;;;;5065402;28;20274;-48
2024/01/26 12:28:42;;;;;;;12.32;3.05;;;14.50;99.90;;;;;;5066524;28;20025;-51
2024/01/26 12:31:07;;;;;;;8.10;3.63;;;14.20;99.90;;;;;;5066155;28;20052;-49
2024/01/26 12:33:37;;;;;;;12.65;3.95;;;14.30;99.90;;;;;;5065453;28;20105;-51
2024/01/26 12:36:09;;;;;;;11.27;2.92;;;14.90;99.90;;;;;;5065915;28;20078;-50
2024/01/26 12:38:35;;;;;;;9.43;2.63;;;15.20;99.90;;;;;;5066303;28;20032;-51
2024/01/26 12:41:01;;;;;;;23.88;6.78;;;15.00;99.90;;;;;;5066228;28;20025;-51